sensor_id;sensor_type;location;lat;lon;timestamp;P1;durP1;ratioP1;P2;durP2;ratioP2
77287;SDS011;66345;42.694;23.346;2023-06-22T00:01:58;11.38;;;7.85;;
77287;SDS011;66345;42.694;23.346;2023-06-22T00:04:24;11.43;;;7.85;;
77287;SDS011;66345;42.694;23.346;2023-06-22T00:06:50;12.25;;;8.48;;
77287;SDS011;66345;42.694;23.346;2023-06-22T00:09:15;11.73;;;7.83;;
77287;SDS011;66345;42.694;23.346;2023-06-22T00:11:41;11.27;;;7.77;;
77287;SDS011;66345;42.694;23.346;2023-06-22T00:14:06;12.33;;;8.40;;
77287;SDS011;66345;42.694;23.346;2023-06-22T00:16:32;11.88;;;7.53;;
77287;SDS011;66345;42.694;23.346;2023-06-22T00:18:58;12.88;;;8.40;;
77287;SDS011;66345;42.694;23.346;2023-06-22T00:21:25;12.20;;;8.48;;
77287;SDS011;66345;42.694;23.346;2023-06-22T00:23:51;14.02;;;8.15;;
77287;SDS011;66345;42.694;23.346;2023-06-22T00:26:17;12.80;;;8.67;;
77287;SDS011;66345;42.694;23.346;2023-06-22T00:28:42;12.75;;;8.15;;
77287;SDS011;66345;42.694;23.346;2023-06-22T00:31:08;12.30;;;8.02;;
77287;SDS011;66345;42.694;23.346;2023-06-22T00:33:33;12.27;;;8.30;;
77287;SDS011;66345;42.694;23.346;2023-06-22T00:35:59;13.23;;;8.50;;
77287;SDS011;66345;42.694;23.346;2023-06-22T00:38:24;12.45;;;8.30;;
77287;SDS011;66345;42.694;23.346;2023-06-22T00:40:49;14.23;;;8.02;;
77287;SDS011;66345;42.694;23.346;2023-06-22T00:43:15;13.50;;;7.90;;
77287;SDS011;66345;42.694;23.346;2023-06-22T00:45:40;14.93;;;9.17;;
77287;SDS011;66345;42.694;23.346;2023-06-22T00:48:06;16.93;;;8.67;;
77287;SDS011;66345;42.694;23.346;2023-06-22T00:50:33;12.02;;;8.75;;
77287;SDS011;66345;42.694;23.346;2023-06-22T00:53:04;11.90;;;8.13;;
77287;SDS011;66345;42.694;23.346;2023-06-22T00:55:37;13.90;;;8.43;;
77287;SDS011;66345;42.694;23.346;2023-06-22T00:58:10;13.70;;;8.25;;
77287;SDS011;66345;42.694;23.346;2023-06-22T01:00:37;14.95;;;8.75;;
77287;SDS011;66345;42.694;23.346;2023-06-22T01:03:05;16.38;;;8.65;;
77287;SDS011;66345;42.694;23.346;2023-06-22T01:05:34;12.85;;;8.60;;
77287;SDS011;66345;42.694;23.346;2023-06-22T01:12:58;13.70;;;8.93;;
77287;SDS011;66345;42.694;23.346;2023-06-22T01:15:43;16.63;;;8.57;;
77287;SDS011;66345;42.694;23.346;2023-06-22T01:18:11;12.88;;;8.60;;
77287;SDS011;66345;42.694;23.346;2023-06-22T01:20:39;14.25;;;8.82;;
77287;SDS011;66345;42.694;23.346;2023-06-22T01:23:27;13.20;;;8.68;;
77287;SDS011;66345;42.694;23.346;2023-06-22T01:28:50;15.68;;;8.90;;
77287;SDS011;66345;42.694;23.346;2023-06-22T01:31:20;13.45;;;9.02;;
77287;SDS011;66345;42.694;23.346;2023-06-22T01:33:50;13.07;;;8.20;;
77287;SDS011;66345;42.694;23.346;2023-06-22T01:36:18;12.35;;;8.27;;
77287;SDS011;66345;42.694;23.346;2023-06-22T01:38:44;13.73;;;9.18;;
77287;SDS011;66345;42.694;23.346;2023-06-22T01:41:12;14.57;;;9.10;;
77287;SDS011;66345;42.694;23.346;2023-06-22T01:43:38;12.63;;;8.77;;
77287;SDS011;66345;42.694;23.346;2023-06-22T01:46:04;13.00;;;8.88;;
77287;SDS011;66345;42.694;23.346;2023-06-22T01:48:29;16.27;;;8.63;;
77287;SDS011;66345;42.694;23.346;2023-06-22T01:50:56;13.00;;;8.85;;
77287;SDS011;66345;42.694;23.346;2023-06-22T01:53:22;13.50;;;8.77;;
77287;SDS011;66345;42.694;23.346;2023-06-22T01:55:48;12.65;;;9.05;;
77287;SDS011;66345;42.694;23.346;2023-06-22T01:58:14;18.90;;;8.60;;
77287;SDS011;66345;42.694;23.346;2023-06-22T02:00:41;12.00;;;8.07;;
77287;SDS011;66345;42.694;23.346;2023-06-22T02:03:22;16.38;;;9.00;;
77287;SDS011;66345;42.694;23.346;2023-06-22T02:05:55;12.27;;;8.77;;
77287;SDS011;66345;42.694;23.346;2023-06-22T02:08:33;11.55;;;8.30;;
77287;SDS011;66345;42.694;23.346;2023-06-22T02:11:05;16.45;;;9.50;;
77287;SDS011;66345;42.694;23.346;2023-06-22T02:13:34;18.55;;;9.07;;
77287;SDS011;66345;42.694;23.346;2023-06-22T02:16:01;15.25;;;8.98;;
77287;SDS011;66345;42.694;23.346;2023-06-22T02:18:27;13.47;;;8.10;;
77287;SDS011;66345;42.694;23.346;2023-06-22T02:20:53;12.55;;;8.07;;
77287;SDS011;66345;42.694;23.346;2023-06-22T02:23:18;14.87;;;8.60;;
77287;SDS011;66345;42.694;23.346;2023-06-22T02:25:44;13.00;;;8.67;;
77287;SDS011;66345;42.694;23.346;2023-06-22T02:28:09;12.13;;;7.70;;
77287;SDS011;66345;42.694;23.346;2023-06-22T02:30:35;12.67;;;7.93;;
77287;SDS011;66345;42.694;23.346;2023-06-22T02:33:00;10.73;;;7.80;;
77287;SDS011;66345;42.694;23.346;2023-06-22T02:35:26;12.07;;;8.32;;
77287;SDS011;66345;42.694;23.346;2023-06-22T02:37:59;13.00;;;8.77;;
77287;SDS011;66345;42.694;23.346;2023-06-22T02:40:25;13.05;;;7.60;;
77287;SDS011;66345;42.694;23.346;2023-06-22T02:42:51;13.18;;;7.90;;
77287;SDS011;66345;42.694;23.346;2023-06-22T02:45:17;13.73;;;7.83;;
77287;SDS011;66345;42.694;23.346;2023-06-22T02:47:42;13.50;;;8.13;;
77287;SDS011;66345;42.694;23.346;2023-06-22T02:50:08;12.27;;;7.80;;
77287;SDS011;66345;42.694;23.346;2023-06-22T02:52:34;12.20;;;7.90;;
77287;SDS011;66345;42.694;23.346;2023-06-22T02:54:59;12.98;;;8.48;;
77287;SDS011;66345;42.694;23.346;2023-06-22T02:57:24;13.20;;;7.77;;
77287;SDS011;66345;42.694;23.346;2023-06-22T02:59:50;12.53;;;7.87;;
77287;SDS011;66345;42.694;23.346;2023-06-22T03:02:15;14.25;;;8.38;;
77287;SDS011;66345;42.694;23.346;2023-06-22T03:04:41;14.73;;;7.90;;
77287;SDS011;66345;42.694;23.346;2023-06-22T03:07:07;13.15;;;8.32;;
77287;SDS011;66345;42.694;23.346;2023-06-22T03:09:33;12.68;;;7.63;;
77287;SDS011;66345;42.694;23.346;2023-06-22T03:11:58;14.83;;;7.97;;
77287;SDS011;66345;42.694;23.346;2023-06-22T03:14:23;11.67;;;7.90;;
77287;SDS011;66345;42.694;23.346;2023-06-22T03:16:49;12.40;;;7.87;;
77287;SDS011;66345;42.694;23.346;2023-06-22T03:19:14;12.05;;;7.45;;
77287;SDS011;66345;42.694;23.346;2023-06-22T03:21:40;14.77;;;7.70;;
77287;SDS011;66345;42.694;23.346;2023-06-22T03:24:06;14.13;;;8.13;;
77287;SDS011;66345;42.694;23.346;2023-06-22T03:26:31;13.93;;;8.88;;
77287;SDS011;66345;42.694;23.346;2023-06-22T03:28:57;13.13;;;8.43;;
77287;SDS011;66345;42.694;23.346;2023-06-22T03:31:22;15.07;;;8.57;;
77287;SDS011;66345;42.694;23.346;2023-06-22T03:33:49;16.13;;;8.93;;
77287;SDS011;66345;42.694;23.346;2023-06-22T03:36:15;19.45;;;9.48;;
77287;SDS011;66345;42.694;23.346;2023-06-22T03:38:45;14.63;;;8.02;;
77287;SDS011;66345;42.694;23.346;2023-06-22T03:41:13;14.43;;;8.40;;
77287;SDS011;66345;42.694;23.346;2023-06-22T03:43:39;13.60;;;8.00;;
77287;SDS011;66345;42.694;23.346;2023-06-22T03:46:05;13.37;;;8.17;;
77287;SDS011;66345;42.694;23.346;2023-06-22T03:48:31;15.73;;;8.13;;
77287;SDS011;66345;42.694;23.346;2023-06-22T03:50:56;13.57;;;8.53;;
77287;SDS011;66345;42.694;23.346;2023-06-22T03:53:21;15.88;;;8.35;;
77287;SDS011;66345;42.694;23.346;2023-06-22T03:55:47;12.60;;;8.68;;
77287;SDS011;66345;42.694;23.346;2023-06-22T03:58:15;13.35;;;7.78;;
77287;SDS011;66345;42.694;23.346;2023-06-22T04:00:41;14.07;;;8.30;;
77287;SDS011;66345;42.694;23.346;2023-06-22T04:03:06;12.93;;;8.00;;
77287;SDS011;66345;42.694;23.346;2023-06-22T04:05:32;14.13;;;8.73;;
77287;SDS011;66345;42.694;23.346;2023-06-22T04:07:58;13.53;;;7.93;;
77287;SDS011;66345;42.694;23.346;2023-06-22T04:10:23;16.95;;;8.25;;
77287;SDS011;66345;42.694;23.346;2023-06-22T04:12:48;11.17;;;7.00;;
77287;SDS011;66345;42.694;23.346;2023-06-22T04:15:14;15.20;;;6.97;;
77287;SDS011;66345;42.694;23.346;2023-06-22T04:17:39;11.43;;;7.10;;
77287;SDS011;66345;42.694;23.346;2023-06-22T04:20:05;13.27;;;7.53;;
77287;SDS011;66345;42.694;23.346;2023-06-22T04:22:31;10.95;;;6.80;;
77287;SDS011;66345;42.694;23.346;2023-06-22T04:24:57;11.60;;;7.60;;
77287;SDS011;66345;42.694;23.346;2023-06-22T04:27:22;12.30;;;7.93;;
77287;SDS011;66345;42.694;23.346;2023-06-22T04:29:48;11.17;;;7.60;;
77287;SDS011;66345;42.694;23.346;2023-06-22T04:32:17;11.02;;;7.05;;
77287;SDS011;66345;42.694;23.346;2023-06-22T04:34:42;12.00;;;7.43;;
77287;SDS011;66345;42.694;23.346;2023-06-22T04:37:08;11.05;;;7.63;;
77287;SDS011;66345;42.694;23.346;2023-06-22T04:39:34;13.57;;;8.15;;
77287;SDS011;66345;42.694;23.346;2023-06-22T04:42:00;13.98;;;9.10;;
77287;SDS011;66345;42.694;23.346;2023-06-22T04:44:26;12.17;;;8.17;;
77287;SDS011;66345;42.694;23.346;2023-06-22T04:46:56;13.07;;;8.13;;
77287;SDS011;66345;42.694;23.346;2023-06-22T04:49:27;17.55;;;12.15;;
77287;SDS011;66345;42.694;23.346;2023-06-22T04:52:00;15.65;;;10.68;;
77287;SDS011;66345;42.694;23.346;2023-06-22T04:54:26;12.35;;;8.48;;
77287;SDS011;66345;42.694;23.346;2023-06-22T04:56:52;14.00;;;8.30;;
77287;SDS011;66345;42.694;23.346;2023-06-22T04:59:23;11.50;;;7.95;;
77287;SDS011;66345;42.694;23.346;2023-06-22T05:02:02;12.07;;;8.43;;
77287;SDS011;66345;42.694;23.346;2023-06-22T05:04:28;14.83;;;8.73;;
77287;SDS011;66345;42.694;23.346;2023-06-22T05:06:58;13.88;;;8.50;;
77287;SDS011;66345;42.694;23.346;2023-06-22T05:09:25;12.63;;;8.65;;
77287;SDS011;66345;42.694;23.346;2023-06-22T05:11:50;10.50;;;8.20;;
77287;SDS011;66345;42.694;23.346;2023-06-22T05:14:16;11.25;;;7.97;;
77287;SDS011;66345;42.694;23.346;2023-06-22T05:16:43;12.57;;;8.17;;
77287;SDS011;66345;42.694;23.346;2023-06-22T05:19:09;11.57;;;8.35;;
77287;SDS011;66345;42.694;23.346;2023-06-22T05:21:35;14.18;;;9.05;;
77287;SDS011;66345;42.694;23.346;2023-06-22T05:24:01;15.77;;;10.10;;
77287;SDS011;66345;42.694;23.346;2023-06-22T05:26:28;17.00;;;9.50;;
77287;SDS011;66345;42.694;23.346;2023-06-22T05:28:54;13.32;;;9.05;;
77287;SDS011;66345;42.694;23.346;2023-06-22T05:31:19;12.27;;;8.80;;
77287;SDS011;66345;42.694;23.346;2023-06-22T05:33:45;20.27;;;13.40;;
77287;SDS011;66345;42.694;23.346;2023-06-22T05:36:12;15.77;;;10.00;;
77287;SDS011;66345;42.694;23.346;2023-06-22T05:38:38;15.07;;;9.98;;
77287;SDS011;66345;42.694;23.346;2023-06-22T05:41:04;21.83;;;10.98;;
77287;SDS011;66345;42.694;23.346;2023-06-22T05:43:30;13.23;;;9.00;;
77287;SDS011;66345;42.694;23.346;2023-06-22T05:45:56;18.53;;;10.07;;
77287;SDS011;66345;42.694;23.346;2023-06-22T05:48:22;14.52;;;9.25;;
77287;SDS011;66345;42.694;23.346;2023-06-22T05:50:47;18.55;;;9.10;;
77287;SDS011;66345;42.694;23.346;2023-06-22T05:53:13;14.30;;;8.53;;
77287;SDS011;66345;42.694;23.346;2023-06-22T05:55:38;12.40;;;8.50;;
77287;SDS011;66345;42.694;23.346;2023-06-22T05:58:04;14.37;;;8.27;;
77287;SDS011;66345;42.694;23.346;2023-06-22T06:00:29;11.65;;;8.02;;
77287;SDS011;66345;42.694;23.346;2023-06-22T06:02:55;10.57;;;8.30;;
77287;SDS011;66345;42.694;23.346;2023-06-22T06:05:20;11.40;;;8.33;;
77287;SDS011;66345;42.694;23.346;2023-06-22T06:07:46;11.70;;;8.50;;
77287;SDS011;66345;42.694;23.346;2023-06-22T06:10:12;12.00;;;8.27;;
77287;SDS011;66345;42.694;23.346;2023-06-22T06:12:38;13.18;;;9.02;;
77287;SDS011;66345;42.694;23.346;2023-06-22T06:15:03;9.97;;;8.50;;
77287;SDS011;66345;42.694;23.346;2023-06-22T06:17:29;11.35;;;8.15;;
77287;SDS011;66345;42.694;23.346;2023-06-22T06:19:55;10.38;;;8.40;;
77287;SDS011;66345;42.694;23.346;2023-06-22T06:22:21;12.57;;;8.77;;
77287;SDS011;66345;42.694;23.346;2023-06-22T06:24:48;11.70;;;9.95;;
77287;SDS011;66345;42.694;23.346;2023-06-22T06:27:14;10.27;;;9.20;;
77287;SDS011;66345;42.694;23.346;2023-06-22T06:29:40;13.38;;;9.50;;
77287;SDS011;66345;42.694;23.346;2023-06-22T06:32:06;13.73;;;10.57;;
77287;SDS011;66345;42.694;23.346;2023-06-22T06:34:31;11.30;;;9.77;;
77287;SDS011;66345;42.694;23.346;2023-06-22T06:36:57;10.90;;;9.80;;
77287;SDS011;66345;42.694;23.346;2023-06-22T06:39:22;10.93;;;9.43;;
77287;SDS011;66345;42.694;23.346;2023-06-22T06:41:48;12.13;;;9.97;;
77287;SDS011;66345;42.694;23.346;2023-06-22T06:44:13;13.55;;;9.68;;
77287;SDS011;66345;42.694;23.346;2023-06-22T06:46:38;13.27;;;10.13;;
77287;SDS011;66345;42.694;23.346;2023-06-22T06:49:04;13.27;;;10.37;;
77287;SDS011;66345;42.694;23.346;2023-06-22T06:51:29;13.17;;;10.37;;
77287;SDS011;66345;42.694;23.346;2023-06-22T06:53:54;11.30;;;9.73;;
77287;SDS011;66345;42.694;23.346;2023-06-22T06:56:20;12.63;;;9.30;;
77287;SDS011;66345;42.694;23.346;2023-06-22T06:58:45;12.57;;;9.60;;
77287;SDS011;66345;42.694;23.346;2023-06-22T07:01:12;13.00;;;9.40;;
77287;SDS011;66345;42.694;23.346;2023-06-22T07:03:37;14.73;;;9.52;;
77287;SDS011;66345;42.694;23.346;2023-06-22T07:06:03;13.10;;;9.47;;
77287;SDS011;66345;42.694;23.346;2023-06-22T07:08:29;14.55;;;9.23;;
77287;SDS011;66345;42.694;23.346;2023-06-22T07:10:54;12.17;;;8.90;;
77287;SDS011;66345;42.694;23.346;2023-06-22T07:13:20;13.50;;;9.13;;
77287;SDS011;66345;42.694;23.346;2023-06-22T07:15:45;12.00;;;9.60;;
77287;SDS011;66345;42.694;23.346;2023-06-22T07:18:10;13.32;;;9.35;;
77287;SDS011;66345;42.694;23.346;2023-06-22T07:20:36;16.33;;;11.30;;
77287;SDS011;66345;42.694;23.346;2023-06-22T07:23:01;17.73;;;11.63;;
77287;SDS011;66345;42.694;23.346;2023-06-22T07:25:28;13.68;;;9.43;;
77287;SDS011;66345;42.694;23.346;2023-06-22T07:30:26;11.13;;;9.68;;
77287;SDS011;66345;42.694;23.346;2023-06-22T07:32:52;12.02;;;9.90;;
77287;SDS011;66345;42.694;23.346;2023-06-22T07:35:18;13.03;;;10.13;;
77287;SDS011;66345;42.694;23.346;2023-06-22T07:37:44;16.77;;;9.88;;
77287;SDS011;66345;42.694;23.346;2023-06-22T07:40:09;17.47;;;9.70;;
77287;SDS011;66345;42.694;23.346;2023-06-22T07:42:35;12.70;;;10.45;;
77287;SDS011;66345;42.694;23.346;2023-06-22T07:45:01;12.03;;;9.20;;
77287;SDS011;66345;42.694;23.346;2023-06-22T07:47:27;13.60;;;10.07;;
77287;SDS011;66345;42.694;23.346;2023-06-22T07:49:53;12.43;;;9.87;;
77287;SDS011;66345;42.694;23.346;2023-06-22T07:52:20;14.05;;;9.40;;
77287;SDS011;66345;42.694;23.346;2023-06-22T07:54:46;14.13;;;10.13;;
77287;SDS011;66345;42.694;23.346;2023-06-22T07:57:12;12.82;;;9.75;;
77287;SDS011;66345;42.694;23.346;2023-06-22T07:59:37;13.73;;;10.83;;
77287;SDS011;66345;42.694;23.346;2023-06-22T08:02:03;14.75;;;10.10;;
77287;SDS011;66345;42.694;23.346;2023-06-22T08:04:29;19.50;;;13.00;;
77287;SDS011;66345;42.694;23.346;2023-06-22T08:06:56;17.40;;;11.05;;
77287;SDS011;66345;42.694;23.346;2023-06-22T08:09:22;15.88;;;11.52;;
77287;SDS011;66345;42.694;23.346;2023-06-22T08:11:48;20.10;;;10.93;;
77287;SDS011;66345;42.694;23.346;2023-06-22T08:14:14;15.55;;;11.70;;
77287;SDS011;66345;42.694;23.346;2023-06-22T08:16:40;17.07;;;12.00;;
77287;SDS011;66345;42.694;23.346;2023-06-22T08:19:06;16.95;;;12.82;;
77287;SDS011;66345;42.694;23.346;2023-06-22T08:21:32;16.60;;;12.37;;
77287;SDS011;66345;42.694;23.346;2023-06-22T08:23:57;17.47;;;11.57;;
77287;SDS011;66345;42.694;23.346;2023-06-22T08:26:23;13.85;;;11.75;;
77287;SDS011;66345;42.694;23.346;2023-06-22T08:28:48;15.77;;;12.20;;
77287;SDS011;66345;42.694;23.346;2023-06-22T08:31:14;11.30;;;10.10;;
77287;SDS011;66345;42.694;23.346;2023-06-22T08:33:40;12.50;;;9.90;;
77287;SDS011;66345;42.694;23.346;2023-06-22T08:36:05;12.95;;;9.50;;
77287;SDS011;66345;42.694;23.346;2023-06-22T08:38:31;12.17;;;9.83;;
77287;SDS011;66345;42.694;23.346;2023-06-22T08:40:57;16.98;;;12.50;;
77287;SDS011;66345;42.694;23.346;2023-06-22T08:43:22;12.43;;;9.37;;
77287;SDS011;66345;42.694;23.346;2023-06-22T08:45:48;16.67;;;10.27;;
77287;SDS011;66345;42.694;23.346;2023-06-22T08:48:13;15.03;;;10.63;;
77287;SDS011;66345;42.694;23.346;2023-06-22T08:50:39;14.18;;;10.50;;
77287;SDS011;66345;42.694;23.346;2023-06-22T08:53:05;11.57;;;10.38;;
77287;SDS011;66345;42.694;23.346;2023-06-22T08:55:31;13.20;;;10.73;;
77287;SDS011;66345;42.694;23.346;2023-06-22T08:57:57;12.45;;;10.13;;
77287;SDS011;66345;42.694;23.346;2023-06-22T09:00:22;14.10;;;11.17;;
77287;SDS011;66345;42.694;23.346;2023-06-22T09:02:48;13.40;;;11.20;;
77287;SDS011;66345;42.694;23.346;2023-06-22T09:05:13;13.60;;;10.50;;
77287;SDS011;66345;42.694;23.346;2023-06-22T09:07:39;11.03;;;9.80;;
77287;SDS011;66345;42.694;23.346;2023-06-22T09:10:05;11.85;;;9.95;;
77287;SDS011;66345;42.694;23.346;2023-06-22T09:12:32;11.90;;;10.65;;
77287;SDS011;66345;42.694;23.346;2023-06-22T09:15:00;13.13;;;10.73;;
77287;SDS011;66345;42.694;23.346;2023-06-22T09:17:26;14.43;;;11.50;;
77287;SDS011;66345;42.694;23.346;2023-06-22T09:19:52;13.07;;;11.38;;
77287;SDS011;66345;42.694;23.346;2023-06-22T09:22:17;14.53;;;11.40;;
77287;SDS011;66345;42.694;23.346;2023-06-22T09:24:43;14.90;;;11.68;;
77287;SDS011;66345;42.694;23.346;2023-06-22T09:27:08;12.27;;;11.00;;
77287;SDS011;66345;42.694;23.346;2023-06-22T09:29:34;13.20;;;11.83;;
77287;SDS011;66345;42.694;23.346;2023-06-22T09:31:59;13.50;;;10.77;;
77287;SDS011;66345;42.694;23.346;2023-06-22T09:34:25;12.70;;;10.88;;
77287;SDS011;66345;42.694;23.346;2023-06-22T09:36:51;12.88;;;11.57;;
77287;SDS011;66345;42.694;23.346;2023-06-22T09:39:17;11.20;;;10.00;;
77287;SDS011;66345;42.694;23.346;2023-06-22T09:41:43;13.35;;;10.35;;
77287;SDS011;66345;42.694;23.346;2023-06-22T09:44:08;11.37;;;10.17;;
77287;SDS011;66345;42.694;23.346;2023-06-22T09:46:34;11.67;;;10.53;;
77287;SDS011;66345;42.694;23.346;2023-06-22T09:48:59;9.77;;;8.87;;
77287;SDS011;66345;42.694;23.346;2023-06-22T09:51:25;11.25;;;9.73;;
77287;SDS011;66345;42.694;23.346;2023-06-22T09:53:51;10.40;;;9.37;;
77287;SDS011;66345;42.694;23.346;2023-06-22T09:56:18;10.68;;;9.63;;
77287;SDS011;66345;42.694;23.346;2023-06-22T09:58:44;10.50;;;9.20;;
77287;SDS011;66345;42.694;23.346;2023-06-22T10:01:17;9.82;;;8.82;;
77287;SDS011;66345;42.694;23.346;2023-06-22T10:03:43;11.87;;;10.77;;
77287;SDS011;66345;42.694;23.346;2023-06-22T10:06:09;12.60;;;9.83;;
77287;SDS011;66345;42.694;23.346;2023-06-22T10:08:34;10.90;;;9.80;;
77287;SDS011;66345;42.694;23.346;2023-06-22T10:11:00;13.50;;;10.52;;
77287;SDS011;66345;42.694;23.346;2023-06-22T10:13:26;10.50;;;9.50;;
77287;SDS011;66345;42.694;23.346;2023-06-22T10:15:51;10.50;;;9.40;;
77287;SDS011;66345;42.694;23.346;2023-06-22T10:18:17;11.40;;;9.57;;
77287;SDS011;66345;42.694;23.346;2023-06-22T10:20:43;13.57;;;10.25;;
77287;SDS011;66345;42.694;23.346;2023-06-22T10:23:10;10.50;;;9.40;;
77287;SDS011;66345;42.694;23.346;2023-06-22T10:25:35;10.82;;;9.75;;
77287;SDS011;66345;42.694;23.346;2023-06-22T10:28:01;14.13;;;10.30;;
77287;SDS011;66345;42.694;23.346;2023-06-22T10:30:26;10.63;;;9.63;;
77287;SDS011;66345;42.694;23.346;2023-06-22T10:32:52;10.97;;;9.90;;
77287;SDS011;66345;42.694;23.346;2023-06-22T10:35:17;11.13;;;10.07;;
77287;SDS011;66345;42.694;23.346;2023-06-22T10:37:43;11.83;;;9.90;;
77287;SDS011;66345;42.694;23.346;2023-06-22T10:40:11;10.48;;;9.40;;
77287;SDS011;66345;42.694;23.346;2023-06-22T10:42:37;11.00;;;9.90;;
77287;SDS011;66345;42.694;23.346;2023-06-22T10:45:03;9.90;;;8.90;;
77287;SDS011;66345;42.694;23.346;2023-06-22T10:47:29;12.70;;;10.53;;
77287;SDS011;66345;42.694;23.346;2023-06-22T10:49:54;11.37;;;9.07;;
77287;SDS011;66345;42.694;23.346;2023-06-22T10:52:19;12.30;;;9.83;;
77287;SDS011;66345;42.694;23.346;2023-06-22T10:54:45;8.80;;;7.70;;
77287;SDS011;66345;42.694;23.346;2023-06-22T10:57:10;11.27;;;8.80;;
77287;SDS011;66345;42.694;23.346;2023-06-22T10:59:35;10.00;;;7.70;;
77287;SDS011;66345;42.694;23.346;2023-06-22T11:02:01;11.63;;;7.57;;
77287;SDS011;66345;42.694;23.346;2023-06-22T11:04:27;10.90;;;8.00;;
77287;SDS011;66345;42.694;23.346;2023-06-22T11:06:52;8.93;;;7.57;;
77287;SDS011;66345;42.694;23.346;2023-06-22T11:09:18;10.57;;;7.85;;
77287;SDS011;66345;42.694;23.346;2023-06-22T11:11:49;11.50;;;7.80;;
77287;SDS011;66345;42.694;23.346;2023-06-22T11:14:18;11.07;;;7.72;;
77287;SDS011;66345;42.694;23.346;2023-06-22T11:16:44;9.82;;;7.80;;
77287;SDS011;66345;42.694;23.346;2023-06-22T11:19:09;10.57;;;7.23;;
77287;SDS011;66345;42.694;23.346;2023-06-22T11:21:35;8.80;;;7.90;;
77287;SDS011;66345;42.694;23.346;2023-06-22T11:24:00;10.48;;;7.70;;
77287;SDS011;66345;42.694;23.346;2023-06-22T11:26:26;11.10;;;7.47;;
77287;SDS011;66345;42.694;23.346;2023-06-22T11:28:52;9.48;;;8.10;;
77287;SDS011;66345;42.694;23.346;2023-06-22T11:31:18;10.33;;;8.20;;
77287;SDS011;66345;42.694;23.346;2023-06-22T11:33:43;10.18;;;7.90;;
77287;SDS011;66345;42.694;23.346;2023-06-22T11:36:13;9.18;;;7.25;;
77287;SDS011;66345;42.694;23.346;2023-06-22T11:38:39;8.90;;;7.10;;
77287;SDS011;66345;42.694;23.346;2023-06-22T11:41:08;10.27;;;7.15;;
77287;SDS011;66345;42.694;23.346;2023-06-22T11:43:35;11.82;;;7.40;;
77287;SDS011;66345;42.694;23.346;2023-06-22T11:46:02;14.37;;;7.83;;
77287;SDS011;66345;42.694;23.346;2023-06-22T11:48:28;8.77;;;7.10;;
77287;SDS011;66345;42.694;23.346;2023-06-22T11:50:54;9.95;;;7.60;;
77287;SDS011;66345;42.694;23.346;2023-06-22T11:53:20;9.13;;;7.07;;
77287;SDS011;66345;42.694;23.346;2023-06-22T11:55:46;9.38;;;7.30;;
77287;SDS011;66345;42.694;23.346;2023-06-22T11:58:12;8.93;;;6.20;;
77287;SDS011;66345;42.694;23.346;2023-06-22T12:00:38;10.13;;;8.30;;
77287;SDS011;66345;42.694;23.346;2023-06-22T12:03:03;11.37;;;7.30;;
77287;SDS011;66345;42.694;23.346;2023-06-22T12:05:28;9.40;;;7.77;;
77287;SDS011;66345;42.694;23.346;2023-06-22T12:07:54;10.65;;;8.18;;
77287;SDS011;66345;42.694;23.346;2023-06-22T12:10:20;9.40;;;7.77;;
77287;SDS011;66345;42.694;23.346;2023-06-22T12:12:50;10.32;;;7.90;;
77287;SDS011;66345;42.694;23.346;2023-06-22T12:15:15;13.43;;;8.47;;
77287;SDS011;66345;42.694;23.346;2023-06-22T12:17:41;10.67;;;7.73;;
77287;SDS011;66345;42.694;23.346;2023-06-22T12:20:06;9.97;;;7.03;;
77287;SDS011;66345;42.694;23.346;2023-06-22T12:22:32;10.15;;;7.10;;
77287;SDS011;66345;42.694;23.346;2023-06-22T12:24:58;11.10;;;6.93;;
77287;SDS011;66345;42.694;23.346;2023-06-22T12:27:24;8.67;;;6.90;;
77287;SDS011;66345;42.694;23.346;2023-06-22T12:29:50;8.50;;;6.50;;
77287;SDS011;66345;42.694;23.346;2023-06-22T12:32:15;12.87;;;7.60;;
77287;SDS011;66345;42.694;23.346;2023-06-22T12:34:41;10.60;;;7.53;;
77287;SDS011;66345;42.694;23.346;2023-06-22T12:37:08;11.43;;;7.93;;
77287;SDS011;66345;42.694;23.346;2023-06-22T12:39:33;10.67;;;8.33;;
77287;SDS011;66345;42.694;23.346;2023-06-22T12:41:59;11.45;;;7.80;;
77287;SDS011;66345;42.694;23.346;2023-06-22T12:44:24;12.70;;;8.10;;
77287;SDS011;66345;42.694;23.346;2023-06-22T12:46:50;12.40;;;8.50;;
77287;SDS011;66345;42.694;23.346;2023-06-22T12:49:15;12.02;;;7.88;;
77287;SDS011;66345;42.694;23.346;2023-06-22T12:51:41;10.93;;;7.13;;
77287;SDS011;66345;42.694;23.346;2023-06-22T12:54:08;11.52;;;7.30;;
77287;SDS011;66345;42.694;23.346;2023-06-22T12:56:33;9.97;;;6.67;;
77287;SDS011;66345;42.694;23.346;2023-06-22T12:58:59;10.55;;;6.57;;
77287;SDS011;66345;42.694;23.346;2023-06-22T13:01:27;16.40;;;8.47;;
77287;SDS011;66345;42.694;23.346;2023-06-22T13:03:52;12.60;;;7.22;;
77287;SDS011;66345;42.694;23.346;2023-06-22T13:06:18;12.52;;;8.10;;
77287;SDS011;66345;42.694;23.346;2023-06-22T13:08:44;12.17;;;7.87;;
77287;SDS011;66345;42.694;23.346;2023-06-22T13:11:09;13.03;;;8.00;;
77287;SDS011;66345;42.694;23.346;2023-06-22T13:13:34;14.83;;;7.53;;
77287;SDS011;66345;42.694;23.346;2023-06-22T13:16:00;10.93;;;7.30;;
77287;SDS011;66345;42.694;23.346;2023-06-22T13:18:25;11.13;;;7.03;;
77287;SDS011;66345;42.694;23.346;2023-06-22T13:20:51;14.80;;;8.73;;
77287;SDS011;66345;42.694;23.346;2023-06-22T13:23:19;11.25;;;7.63;;
77287;SDS011;66345;42.694;23.346;2023-06-22T13:25:45;14.23;;;7.57;;
77287;SDS011;66345;42.694;23.346;2023-06-22T13:28:10;12.10;;;7.70;;
77287;SDS011;66345;42.694;23.346;2023-06-22T13:30:38;19.00;;;12.05;;
77287;SDS011;66345;42.694;23.346;2023-06-22T13:33:04;18.20;;;12.23;;
77287;SDS011;66345;42.694;23.346;2023-06-22T13:35:29;13.77;;;8.70;;
77287;SDS011;66345;42.694;23.346;2023-06-22T13:37:54;14.60;;;9.63;;
77287;SDS011;66345;42.694;23.346;2023-06-22T13:40:20;13.73;;;8.15;;
77287;SDS011;66345;42.694;23.346;2023-06-22T13:42:45;14.30;;;8.90;;
77287;SDS011;66345;42.694;23.346;2023-06-22T13:45:11;12.43;;;7.60;;
77287;SDS011;66345;42.694;23.346;2023-06-22T13:47:36;13.33;;;8.20;;
77287;SDS011;66345;42.694;23.346;2023-06-22T13:50:02;13.30;;;8.85;;
77287;SDS011;66345;42.694;23.346;2023-06-22T13:52:28;12.23;;;7.63;;
77287;SDS011;66345;42.694;23.346;2023-06-22T13:54:53;11.85;;;7.95;;
77287;SDS011;66345;42.694;23.346;2023-06-22T13:57:19;14.73;;;8.57;;
77287;SDS011;66345;42.694;23.346;2023-06-22T13:59:44;16.20;;;9.73;;
77287;SDS011;66345;42.694;23.346;2023-06-22T14:02:10;13.87;;;8.43;;
77287;SDS011;66345;42.694;23.346;2023-06-22T14:04:35;12.35;;;8.27;;
77287;SDS011;66345;42.694;23.346;2023-06-22T14:07:01;14.93;;;9.67;;
77287;SDS011;66345;42.694;23.346;2023-06-22T14:09:26;17.60;;;9.10;;
77287;SDS011;66345;42.694;23.346;2023-06-22T14:11:53;17.13;;;9.13;;
77287;SDS011;66345;42.694;23.346;2023-06-22T14:14:20;14.82;;;8.45;;
77287;SDS011;66345;42.694;23.346;2023-06-22T14:16:45;14.63;;;8.82;;
77287;SDS011;66345;42.694;23.346;2023-06-22T14:19:11;20.67;;;9.53;;
77287;SDS011;66345;42.694;23.346;2023-06-22T14:21:36;13.67;;;8.50;;
77287;SDS011;66345;42.694;23.346;2023-06-22T14:24:02;14.75;;;8.50;;
77287;SDS011;66345;42.694;23.346;2023-06-22T14:26:27;13.40;;;8.03;;